Time;durP1;ratioP1;P1;durP2;ratioP2;P2;SDS_P1;SDS_P2;PMS_P1;PMS_P2;Temp;Humidity;BMP_temperature;BMP_pressure;BME280_temperature;BME280_humidity;BME280_pressure;Samples;Min_cycle;Max_cycle;Signal;HPM_P1;HPM_P2
2021/12/14 00:02:18;;;;;;;39.50;17.10;;;;;;;-0.58;81.60;101261.63;1454399;89;21664;-76
2021/12/14 00:04:46;;;;;;;32.97;16.00;;;;;;;-0.57;81.80;101259.45;1458267;89;22145;-76
2021/12/14 00:07:16;;;;;;;32.93;16.00;;;;;;;-0.58;81.80;101259.03;1459286;89;21586;-76
2021/12/14 00:09:45;;;;;;;28.47;13.03;;;;;;;-0.54;81.56;101258.03;1449702;89;21670;-76
2021/12/14 00:17:30;;;;;;;26.03;15.40;;;;;;;-0.52;81.64;101253.63;1452588;89;21706;-76
2021/12/14 00:19:59;;;;;;;34.30;14.17;;;;;;;-0.49;81.37;101251.34;1445451;89;22526;-76
2021/12/14 00:24:57;;;;;;;35.20;15.90;;;;;;;-0.47;81.22;101255.58;1448176;89;21716;-76
2021/12/14 00:27:26;;;;;;;35.87;17.70;;;;;;;-0.42;81.08;101247.63;1453621;89;21707;-76
2021/12/14 00:29:58;;;;;;;29.13;14.83;;;;;;;-0.41;80.68;101253.21;1451885;89;21857;-77
2021/12/14 00:32:31;;;;;;;31.50;16.23;;;;;;;-0.41;80.51;101264.07;1452951;89;22640;-77
2021/12/14 00:35:02;;;;;;;30.83;15.87;;;;;;;-0.35;80.44;101259.94;1460976;86;21640;-76
2021/12/14 00:37:35;;;;;;;32.30;13.75;;;;;;;-0.37;80.23;101265.67;1505415;86;21579;-76
2021/12/14 00:40:23;;;;;;;37.37;17.97;;;;;;;-0.36;80.10;101261.70;1511590;86;21439;-76
2021/12/14 00:42:52;;;;;;;29.17;13.27;;;;;;;-0.31;80.13;101257.63;1501052;86;22607;-77
2021/12/14 00:45:21;;;;;;;37.67;19.00;;;;;;;-0.29;79.53;101261.00;1506945;86;21650;-77
2021/12/14 00:47:49;;;;;;;32.77;16.10;;;;;;;-0.28;80.16;101267.92;1498180;86;21527;-77
2021/12/14 00:50:20;;;;;;;27.63;15.17;;;;;;;-0.31;79.55;101268.88;1502253;86;21519;-77
2021/12/14 00:52:47;;;;;;;;;;;;;;;-0.28;79.48;101271.36;1504287;86;21593;-76
2021/12/14 00:55:20;;;;;;;34.77;17.50;;;;;;;-0.23;79.47;101268.60;1494266;86;20295;-77
2021/12/14 00:57:47;;;;;;;35.57;16.20;;;;;;;-0.19;79.42;101273.23;1502343;86;21782;-76
2021/12/14 01:00:19;;;;;;;27.57;13.70;;;;;;;-0.17;78.93;101273.57;1495522;86;21809;-76
2021/12/14 01:02:46;;;;;;;32.70;15.43;;;;;;;-0.16;78.32;101272.66;1500442;86;21581;-76
2021/12/14 01:05:19;;;;;;;34.40;16.57;;;;;;;-0.12;78.20;101266.41;1487049;86;21608;-77
2021/12/14 01:07:47;;;;;;;33.73;14.93;;;;;;;-0.07;77.75;101269.69;1481654;87;22728;-76
2021/12/14 01:10:19;;;;;;;30.93;14.53;;;;;;;-0.07;77.87;101268.39;1483337;87;21755;-77
2021/12/14 01:12:51;;;;;;;32.20;14.67;;;;;;;-0.07;77.10;101273.59;1476213;88;21873;-77
2021/12/14 01:15:30;;;;;;;28.47;14.70;;;;;;;0.01;77.10;101277.67;1487751;88;21899;-77
2021/12/14 01:18:14;;;;;;;30.10;15.70;;;;;;;0.01;76.70;101281.13;1487077;88;21897;-77
2021/12/14 01:20:39;;;;;;;26.13;15.33;;;;;;;0.03;76.43;101273.23;1488025;87;21426;-77
2021/12/14 01:23:03;;;;;;;23.77;12.97;;;;;;;0.10;76.62;101276.01;1480605;87;21900;-77
2021/12/14 01:25:36;;;;;;;44.10;18.93;;;;;;;0.08;76.30;101281.27;1482434;88;21777;-77
2021/12/14 01:28:15;;;;;;;31.53;16.27;;;;;;;0.15;76.33;101280.59;1481972;86;21726;-77
2021/12/14 01:33:36;;;;;;;31.67;15.93;;;;;;;0.21;76.08;101275.98;1509261;86;21683;-77
2021/12/14 01:36:11;;;;;;;29.30;16.32;;;;;;;0.21;75.96;101282.95;1493947;86;21626;-77
2021/12/14 01:38:45;;;;;;;31.93;17.37;;;;;;;0.25;76.08;101280.60;1483712;87;21425;-78
2021/12/14 01:41:11;;;;;;;32.17;16.23;;;;;;;0.29;76.19;101282.62;1484701;87;22546;-78
2021/12/14 01:43:55;;;;;;;28.63;16.30;;;;;;;0.27;75.82;101282.70;1472510;88;21677;-77
2021/12/14 01:46:37;;;;;;;31.23;14.73;;;;;;;0.27;75.74;101277.49;1453059;88;21513;-77
2021/12/14 01:49:08;;;;;;;30.93;15.67;;;;;;;0.28;75.47;101277.87;1475169;88;21726;-76
2021/12/14 01:51:40;;;;;;;32.80;17.27;;;;;;;0.29;75.58;101273.08;1473537;88;21582;-76
2021/12/14 01:54:11;;;;;;;31.47;15.90;;;;;;;0.28;75.27;101277.87;1470373;88;21743;-76
2021/12/14 01:56:39;;;;;;;24.98;13.15;;;;;;;0.34;75.49;101275.48;1474288;88;21662;-77
2021/12/14 01:59:15;;;;;;;35.47;18.73;;;;;;;0.24;75.04;101271.56;1476376;88;22379;-76
2021/12/14 02:01:55;;;;;;;38.27;21.50;;;;;;;0.23;75.47;101272.00;1475006;88;21594;-77
2021/12/14 02:04:20;;;;;;;36.60;19.60;;;;;;;0.19;75.89;101273.03;1464511;89;21788;-77
2021/12/14 02:07:02;;;;;;;33.97;14.77;;;;;;;0.19;76.07;101279.09;1476907;88;21561;-77
2021/12/14 02:09:34;;;;;;;39.50;18.43;;;;;;;0.13;75.78;101265.47;1461362;89;21564;-77
2021/12/14 02:12:09;;;;;;;37.03;18.10;;;;;;;0.18;76.18;101267.45;1471766;88;23407;-77
2021/12/14 02:14:37;;;;;;;29.20;14.77;;;;;;;0.19;76.29;101268.67;1471822;88;22773;-77
2021/12/14 02:17:09;;;;;;;34.83;18.23;;;;;;;0.16;75.97;101269.25;1470562;88;21724;-77
2021/12/14 02:19:38;;;;;;;29.67;17.80;;;;;;;0.20;76.55;101276.02;1447959;88;21611;-77
2021/12/14 02:22:09;;;;;;;32.83;18.10;;;;;;;0.21;76.45;101277.28;1473938;88;21639;-76
2021/12/14 02:24:40;;;;;;;32.60;17.50;;;;;;;0.25;76.50;101268.05;1469393;88;22683;-77
2021/12/14 02:27:08;;;;;;;38.17;19.17;;;;;;;0.24;76.38;101275.02;1468557;88;22460;-76
2021/12/14 02:29:47;;;;;;;31.47;17.43;;;;;;;0.31;76.52;101271.23;1468519;88;21618;-77
2021/12/14 02:32:22;;;;;;;37.13;19.53;;;;;;;0.29;76.48;101274.38;1484511;87;23270;-77
2021/12/14 02:34:56;;;;;;;40.37;22.13;;;;;;;0.32;76.35;101269.51;1496149;87;21638;-77
2021/12/14 02:37:37;;;;;;;39.10;20.50;;;;;;;0.33;76.08;101272.03;1492747;87;22954;-77
2021/12/14 02:40:17;;;;;;;41.55;20.85;;;;;;;0.36;76.01;101260.19;1491319;86;21535;-77
2021/12/14 02:42:40;;;;;;;41.83;19.13;;;;;;;0.39;76.26;101267.87;1497157;87;21897;-78
2021/12/14 02:45:08;;;;;;;39.97;19.77;;;;;;;0.31;75.78;101269.09;1496327;87;21743;-77
2021/12/14 02:47:36;;;;;;;38.63;19.60;;;;;;;0.30;76.10;101269.56;1495478;87;21747;-78
2021/12/14 02:50:07;;;;;;;35.80;18.80;;;;;;;0.25;76.13;101270.19;1497665;87;22759;-77
2021/12/14 02:52:35;;;;;;;36.85;20.00;;;;;;;0.21;76.26;101274.67;1494460;86;21608;-77
2021/12/14 02:55:17;;;;;;;47.27;22.03;;;;;;;0.14;76.29;101271.06;1494410;87;21492;-77
2021/12/14 02:57:49;;;;;;;39.27;17.93;;;;;;;0.07;76.37;101271.77;1497787;87;21689;-77
2021/12/14 03:00:25;;;;;;;35.83;18.03;;;;;;;0.08;76.62;101274.75;1499673;86;21388;-77
2021/12/14 03:02:53;;;;;;;38.03;17.97;;;;;;;0.05;76.68;101270.97;1496093;86;21694;-76
2021/12/14 03:05:24;;;;;;;41.07;18.90;;;;;;;0.03;76.73;101273.23;1492796;86;21647;-77
2021/12/14 03:08:00;;;;;;;34.03;17.30;;;;;;;0.01;76.62;101264.66;1498079;86;21699;-77
2021/12/14 03:10:35;;;;;;;45.80;22.70;;;;;;;-0.02;76.73;101279.48;1492770;87;23427;-77
2021/12/14 03:13:08;;;;;;;46.37;19.53;;;;;;;-0.05;76.55;101277.00;1494439;87;21528;-77
2021/12/14 03:15:48;;;;;;;38.40;19.43;;;;;;;-0.04;76.59;101277.84;1497417;86;21858;-76
2021/12/14 03:18:21;;;;;;;38.60;17.57;;;;;;;-0.12;76.13;101272.91;1493608;86;21667;-76
2021/12/14 03:21:00;;;;;;;35.50;19.57;;;;;;;-0.14;76.44;101282.56;1496938;87;21674;-76
2021/12/14 03:23:35;;;;;;;47.03;22.73;;;;;;;-0.18;76.40;101272.31;1489636;86;21786;-77
2021/12/14 03:26:07;;;;;;;40.73;19.73;;;;;;;-0.18;76.69;101276.22;1500866;86;21605;-76
2021/12/14 03:28:36;;;;;;;44.87;20.90;;;;;;;-0.19;77.03;101274.08;1493460;87;21638;-76
2021/12/14 03:31:12;;;;;;;49.03;22.20;;;;;;;-0.18;77.10;101277.05;1495520;86;22377;-76
2021/12/14 03:33:44;;;;;;;34.80;17.30;;;;;;;-0.20;77.07;101278.02;1492122;86;21570;-77
2021/12/14 03:36:20;;;;;;;46.13;21.43;;;;;;;-0.26;77.04;101285.17;1499935;86;21660;-76
2021/12/14 03:39:18;;;;;;;45.77;20.73;;;;;;;-0.20;77.26;101278.02;1495797;86;22548;-77
2021/12/14 03:41:50;;;;;;;47.67;21.10;;;;;;;-0.25;77.07;101286.86;1496318;87;22553;-77
2021/12/14 03:44:38;;;;;;;46.57;22.83;;;;;;;-0.24;77.52;101293.75;1497011;86;22423;-77
2021/12/14 03:47:13;;;;;;;46.70;23.57;;;;;;;-0.21;77.49;101281.53;1490839;87;21689;-76
2021/12/14 03:49:54;;;;;;;37.70;17.40;;;;;;;-0.23;77.63;101286.81;1505423;86;21478;-77
2021/12/14 03:52:28;;;;;;;;;;;;;;;-0.29;77.67;101287.89;1502273;86;21717;-76
2021/12/14 03:54:58;;;;;;;36.00;18.03;;;;;;;-0.23;77.83;101281.61;1492433;86;21777;-77
2021/12/14 03:57:27;;;;;;;44.63;23.37;;;;;;;-0.27;77.31;101281.31;1483364;86;21621;-76
2021/12/14 03:59:54;;;;;;;46.07;22.40;;;;;;;-0.26;77.59;101290.80;1492110;86;21514;-76
2021/12/14 04:02:23;;;;;;;45.20;21.23;;;;;;;-0.27;77.43;101291.72;1494795;87;23595;-76
2021/12/14 04:05:03;;;;;;;44.60;21.90;;;;;;;-0.26;77.85;101285.59;1506945;86;21786;-76
2021/12/14 04:07:26;;;;;;;46.33;22.90;;;;;;;-0.24;77.88;101286.40;1497417;87;21770;-76
2021/12/14 04:09:54;;;;;;;45.60;22.10;;;;;;;-0.21;77.69;101288.05;1494950;87;22808;-76
2021/12/14 04:12:22;;;;;;;29.50;14.43;;;;;;;-0.21;77.21;101281.08;1497181;87;21780;-77
2021/12/14 04:14:56;;;;;;;44.47;24.53;;;;;;;-0.21;76.81;101275.88;1500624;86;21637;-77
2021/12/14 04:17:28;;;;;;;43.80;19.43;;;;;;;-0.16;77.04;101276.55;1497225;86;22631;-77
2021/12/14 04:19:55;;;;;;;50.10;24.37;;;;;;;-0.21;76.89;101277.17;1493664;87;21527;-77
2021/12/14 04:22:27;;;;;;;52.63;24.57;;;;;;;-0.19;77.04;101279.73;1487901;87;21357;-76
2021/12/14 04:25:00;;;;;;;49.57;22.90;;;;;;;-0.16;77.00;101282.22;1493432;87;21695;-76
2021/12/14 04:27:31;;;;;;;54.70;25.87;;;;;;;-0.20;76.61;101289.30;1503597;87;22746;-76
2021/12/14 04:30:03;;;;;;;41.02;19.98;;;;;;;-0.21;76.55;101288.05;1497035;86;21636;-76
2021/12/14 04:32:30;;;;;;;47.27;22.37;;;;;;;-0.24;76.54;101295.05;1492729;87;21380;-76
2021/12/14 04:34:58;;;;;;;56.13;26.37;;;;;;;-0.20;76.77;101293.63;1486698;86;21581;-76
2021/12/14 04:37:25;;;;;;;52.93;26.57;;;;;;;-0.20;76.87;101297.53;1488800;87;23717;-77
2021/12/14 04:40:00;;;;;;;47.67;22.13;;;;;;;-0.21;76.42;101302.34;1474322;88;22095;-78
2021/12/14 04:53:56;;;;;;;47.23;21.87;;;;;;;-0.19;76.70;101314.40;1495883;87;21671;-78
2021/12/14 04:56:31;;;;;;;51.00;26.67;;;;;;;-0.18;76.43;101306.98;1477112;87;21671;-78
2021/12/14 04:59:09;;;;;;;39.63;21.40;;;;;;;-0.12;76.36;101314.55;1474570;87;21661;-77
2021/12/14 05:01:41;;;;;;;43.87;23.13;;;;;;;-0.15;75.47;101321.17;1474900;88;23662;-77
2021/12/14 05:04:14;;;;;;;44.13;23.00;;;;;;;-0.16;75.61;101322.09;1476466;88;21668;-78
2021/12/14 05:06:48;;;;;;;53.20;24.60;;;;;;;-0.18;75.54;101319.98;1496182;87;21484;-78
2021/12/14 05:09:23;;;;;;;46.57;22.70;;;;;;;-0.25;75.53;101323.28;1499525;87;21608;-78
2021/12/14 05:11:55;;;;;;;43.03;22.93;;;;;;;-0.27;75.59;101322.48;1492556;86;21595;-78
2021/12/14 05:14:27;;;;;;;51.60;24.53;;;;;;;-0.26;75.57;101332.43;1491991;87;21649;-78
2021/12/14 05:17:18;;;;;;;43.97;24.30;;;;;;;-0.28;75.53;101334.26;1500482;86;21641;-77
2021/12/14 05:19:47;;;;;;;63.78;26.45;;;;;;;-0.27;75.58;101330.74;1452252;90;22608;-77
2021/12/14 05:22:22;;;;;;;43.70;24.13;;;;;;;-0.30;75.46;101338.66;1444487;88;22328;-77
2021/12/14 05:24:55;;;;;;;47.90;23.50;;;;;;;-0.29;75.67;101339.92;1455199;89;22574;-77
2021/12/14 05:27:33;;;;;;;52.27;24.17;;;;;;;-0.27;75.67;101339.84;1448580;90;21659;-78
2021/12/14 05:30:22;;;;;;;49.73;24.03;;;;;;;-0.25;75.57;101347.99;1450332;89;21731;-78
2021/12/14 05:32:51;;;;;;;53.83;24.87;;;;;;;-0.27;75.48;101341.15;1450592;89;21551;-77
2021/12/14 05:35:19;;;;;;;46.17;22.57;;;;;;;-0.32;75.37;101345.66;1454656;90;21719;-77
2021/12/14 05:37:52;;;;;;;49.40;24.07;;;;;;;-0.35;75.54;101339.27;1449063;89;21558;-78
2021/12/14 05:40:41;;;;;;;45.23;23.70;;;;;;;-0.38;75.45;101341.53;1448928;88;21726;-78
2021/12/14 05:43:07;;;;;;;41.57;20.70;;;;;;;-0.36;75.68;101345.39;1454147;89;21675;-78
2021/12/14 05:45:40;;;;;;;48.13;22.57;;;;;;;-0.41;75.61;101344.24;1442069;90;21539;-77
2021/12/14 05:48:11;;;;;;;52.67;25.27;;;;;;;-0.41;76.02;101343.40;1451145;89;22875;-77
2021/12/14 05:50:43;;;;;;;46.98;22.22;;;;;;;-0.42;76.21;101341.72;1453904;89;21633;-77
2021/12/14 05:53:24;;;;;;;42.23;21.43;;;;;;;-0.48;76.15;101341.02;1442845;89;21493;-77
2021/12/14 05:55:53;;;;;;;39.83;18.90;;;;;;;-0.49;75.96;101336.73;1442810;89;22147;-77
2021/12/14 05:58:23;;;;;;;44.50;22.47;;;;;;;-0.52;76.45;101341.17;1447812;89;21652;-77
2021/12/14 06:01:05;;;;;;;42.63;21.83;;;;;;;-0.53;76.01;101348.59;1454663;88;21624;-77
2021/12/14 06:03:39;;;;;;;51.93;25.93;;;;;;;-0.49;76.11;101349.73;1450024;89;22660;-77
2021/12/14 06:06:28;;;;;;;44.80;20.13;;;;;;;-0.47;75.99;101359.61;1453506;89;21570;-77
2021/12/14 06:09:16;;;;;;;42.97;21.40;;;;;;;-0.46;75.86;101360.03;1452886;89;21669;-78
2021/12/14 06:11:47;;;;;;;47.30;22.80;;;;;;;-0.39;75.90;101358.05;1445195;89;22135;-77
2021/12/14 06:14:21;;;;;;;43.13;19.73;;;;;;;-0.35;75.94;101355.72;1451665;89;21565;-78
2021/12/14 06:16:52;;;;;;;50.40;23.03;;;;;;;-0.33;75.60;101358.28;1449718;89;22454;-78
2021/12/14 06:19:36;;;;;;;49.83;26.03;;;;;;;-0.32;75.47;101358.67;1456884;88;22557;-79
2021/12/14 06:22:17;;;;;;;47.77;24.07;;;;;;;-0.28;75.74;101364.17;1457510;88;22090;-77
2021/12/14 06:24:49;;;;;;;49.93;25.02;;;;;;;-0.25;75.87;101366.20;1460817;89;21717;-77
2021/12/14 06:27:20;;;;;;;45.00;21.57;;;;;;;-0.25;75.89;101369.27;1446920;89;21448;-77
2021/12/14 06:30:08;;;;;;;45.60;22.27;;;;;;;-0.26;75.49;101366.25;1461977;89;21842;-77
2021/12/14 06:32:39;;;;;;;43.27;21.07;;;;;;;-0.24;75.21;101370.95;1450018;89;23316;-77
2021/12/14 06:35:19;;;;;;;45.63;23.07;;;;;;;-0.23;75.00;101371.37;1446327;88;21586;-77
2021/12/14 06:38:29;;;;;;;46.00;23.23;;;;;;;-0.20;74.94;101376.46;1453273;89;22775;-77
2021/12/14 06:41:02;;;;;;;47.67;25.07;;;;;;;-0.19;74.86;101365.59;1444847;89;21695;-77
2021/12/14 06:43:47;;;;;;;39.37;18.13;;;;;;;-0.18;74.80;101377.23;1450328;89;22755;-78
2021/12/14 06:46:22;;;;;;;47.33;24.23;;;;;;;-0.19;74.43;101379.91;1461210;89;21690;-77
2021/12/14 06:48:55;;;;;;;45.10;21.43;;;;;;;-0.13;74.82;101381.83;1454453;89;21718;-77
2021/12/14 06:51:32;;;;;;;64.17;24.53;;;;;;;-0.14;74.53;101376.69;1446135;88;21658;-77
2021/12/14 06:54:10;;;;;;;46.43;23.67;;;;;;;-0.07;74.45;101387.26;1446907;90;21634;-77
2021/12/14 06:56:39;;;;;;;46.03;23.33;;;;;;;-0.10;74.13;101379.11;1442154;90;21935;-77
2021/12/14 06:59:12;;;;;;;41.60;21.13;;;;;;;-0.03;74.42;101383.20;1434076;88;21644;-78
2021/12/14 07:01:57;;;;;;;49.37;24.00;;;;;;;-0.04;74.16;101385.84;1452627;88;23675;-81
2021/12/14 07:04:34;;;;;;;42.10;20.63;;;;;;;0.09;78.91;101390.16;1459249;89;21559;-81
2021/12/14 07:07:09;;;;;;;40.40;19.33;;;;;;;0.29;76.22;101392.86;1453922;89;21686;-82
2021/12/14 07:09:45;;;;;;;38.93;21.07;;;;;;;0.50;75.95;101391.18;1454372;89;21691;-83
2021/12/14 07:12:17;;;;;;;39.93;18.70;;;;;;;0.68;78.02;101396.95;1465187;88;21477;-82
2021/12/14 07:14:58;;;;;;;40.90;20.97;;;;;;;0.70;72.76;101399.52;1455007;89;21745;-83
2021/12/14 07:17:40;;;;;;;34.30;17.57;;;;;;;0.52;71.31;101402.83;1443319;89;21522;-82
2021/12/14 07:20:13;;;;;;;46.10;24.27;;;;;;;0.44;72.21;101400.53;1452079;88;21615;-81
2021/12/14 07:22:48;;;;;;;39.67;19.60;;;;;;;0.38;72.44;101401.62;1442700;90;21687;-82
2021/12/14 07:25:40;;;;;;;52.40;24.40;;;;;;;0.28;71.85;101396.34;1446230;89;21633;-82
2021/12/14 07:28:12;;;;;;;52.00;24.50;;;;;;;0.27;72.62;101402.48;1448822;89;22633;-82
2021/12/14 07:30:57;;;;;;;38.07;17.83;;;;;;;0.24;72.15;101402.59;1448916;89;21861;-82
2021/12/14 07:33:28;;;;;;;44.10;20.43;;;;;;;0.25;71.96;101408.19;1450225;89;21575;-82
2021/12/14 07:36:06;;;;;;;34.70;18.63;;;;;;;0.31;72.76;101414.46;1460075;88;22412;-82
2021/12/14 07:38:47;;;;;;;36.87;18.90;;;;;;;0.31;72.28;101411.02;1453907;89;21629;-81
2021/12/14 07:41:50;;;;;;;41.90;20.20;;;;;;;0.32;72.09;101409.67;1454322;89;21680;-81
2021/12/14 07:44:25;;;;;;;67.00;30.90;;;;;;;0.33;71.73;101410.05;1454184;88;21417;-82
2021/12/14 07:47:10;;;;;;;37.30;18.63;;;;;;;0.41;72.26;101411.92;1451322;89;21627;-81
2021/12/14 07:49:46;;;;;;;48.17;23.43;;;;;;;0.36;71.51;101421.66;1456021;89;21683;-81
2021/12/14 07:52:18;;;;;;;44.17;21.70;;;;;;;0.41;71.63;101421.49;1449979;89;21651;-81
2021/12/14 07:54:53;;;;;;;44.27;22.43;;;;;;;0.50;71.78;101415.92;1455238;89;21743;-81
2021/12/14 07:57:35;;;;;;;52.27;21.87;;;;;;;0.54;71.35;101424.46;1456085;89;21694;-81
2021/12/14 08:00:20;;;;;;;;;;;;;;;0.52;70.86;101415.42;1450615;89;21908;-81
2021/12/14 08:02:55;;;;;;;51.60;25.13;;;;;;;0.54;70.51;101424.46;1446152;89;20329;-81
2021/12/14 08:05:37;;;;;;;41.10;19.60;;;;;;;0.56;70.84;101420.05;1449315;89;21945;-81
2021/12/14 08:08:20;;;;;;;39.60;18.70;;;;;;;0.59;70.60;101417.33;1456583;89;21448;-81
2021/12/14 08:11:08;;;;;;;48.47;24.97;;;;;;;0.63;70.57;101418.46;1450720;89;21601;-81
2021/12/14 08:13:24;;;;;;;58.27;27.53;;;;;;;0.72;71.13;101422.47;1402497;92;21864;-81
2021/12/14 08:16:00;;;;;;;49.50;21.57;;;;;;;0.81;71.63;101423.86;1390052;93;21827;-81
2021/12/14 08:18:35;;;;;;;40.63;19.77;;;;;;;0.88;70.80;101427.44;1453187;89;21873;-80
2021/12/14 08:21:15;;;;;;;43.83;19.53;;;;;;;0.88;69.84;101418.78;1433339;91;21555;-82
2021/12/14 08:23:53;;;;;;;84.23;33.60;;;;;;;0.85;69.60;101421.51;1448424;89;21591;-82
2021/12/14 08:26:35;;;;;;;123.50;45.73;;;;;;;0.98;70.51;101422.73;1423308;91;22752;-82
2021/12/14 08:29:14;;;;;;;;;;;;;;;1.12;70.76;101420.41;1427663;91;21704;-82
2021/12/14 08:31:46;;;;;;;89.73;33.87;;;;;;;1.17;69.77;101412.38;1424872;91;20368;-82
2021/12/14 08:34:25;;;;;;;82.97;36.40;;;;;;;1.23;69.80;101409.52;1424219;91;21701;-82
2021/12/14 08:37:01;;;;;;;45.93;22.10;;;;;;;1.27;69.46;101416.31;1430599;91;22669;-82
2021/12/14 08:39:33;;;;;;;50.07;22.50;;;;;;;1.30;69.11;101416.65;1432751;91;22673;-82
2021/12/14 08:42:26;;;;;;;39.37;19.37;;;;;;;1.31;69.10;101419.17;1447300;90;21758;-82
2021/12/14 08:44:56;;;;;;;50.57;23.50;;;;;;;1.32;68.34;101418.28;1430833;91;21785;-81
2021/12/14 08:47:31;;;;;;;45.77;22.77;;;;;;;1.32;68.90;101417.41;1437229;90;21714;-81
2021/12/14 08:50:03;;;;;;;52.93;23.17;;;;;;;1.40;68.68;101422.31;1430018;91;21935;-81
2021/12/14 08:52:30;;;;;;;51.77;24.30;;;;;;;1.40;68.68;101422.31;1437110;90;21927;-82
2021/12/14 08:55:01;;;;;;;48.47;22.57;;;;;;;1.49;69.12;101421.45;1428326;91;21989;-81
2021/12/14 08:57:32;;;;;;;46.77;23.87;;;;;;;1.53;68.86;101427.42;1365419;90;21639;-81
2021/12/14 09:00:06;;;;;;;49.73;23.60;;;;;;;1.54;68.04;101416.90;1492896;91;22294;-81
2021/12/14 09:02:33;;;;;;;37.17;19.43;;;;;;;1.43;67.03;101410.45;1475073;91;21304;-81
2021/12/14 09:05:21;;;;;;;39.60;17.37;;;;;;;1.43;67.03;101410.45;1375259;89;21658;-81
2021/12/14 09:07:48;;;;;;;57.33;27.53;;;;;;;1.51;67.90;101404.45;1414880;91;22013;-81
2021/12/14 09:10:21;;;;;;;42.83;19.43;;;;;;;1.51;67.90;101404.45;1442799;90;22789;-81
2021/12/14 09:12:52;;;;;;;48.77;21.13;;;;;;;1.52;67.58;101399.61;1424501;91;21595;-81
2021/12/14 09:15:28;;;;;;;35.10;15.60;;;;;;;1.52;67.58;101399.61;1449045;89;22952;-82
2021/12/14 09:17:56;;;;;;;71.20;30.30;;;;;;;1.63;67.14;101397.85;1441288;90;22681;-80
2021/12/14 09:20:46;;;;;;;38.37;17.47;;;;;;;1.64;66.24;101388.67;1450530;89;22112;-81
2021/12/14 09:23:19;;;;;;;;;;;;;;;1.64;66.24;101388.67;1451531;90;22026;-87
2021/12/14 09:25:48;;;;;;;39.53;19.00;;;;;;;1.63;66.94;101385.64;1458774;89;20414;-88
2021/12/14 09:28:17;;;;;;;49.77;23.47;;;;;;;1.93;67.74;101375.63;1451985;88;21993;-87
2021/12/14 09:30:59;;;;;;;37.23;18.97;;;;;;;1.93;67.74;101375.63;1456139;90;21827;-87
2021/12/14 09:33:28;;;;;;;78.67;35.37;;;;;;;2.17;67.74;101374.95;1439034;89;21953;-89
2021/12/14 09:36:11;;;;;;;40.93;18.50;;;;;;;2.17;67.74;101374.95;1437628;89;22139;-88
2021/12/14 09:38:55;;;;;;;36.60;19.33;;;;;;;2.34;66.78;101365.50;1451249;89;22215;-85
2021/12/14 09:41:28;;;;;;;111.13;52.53;;;;;;;2.41;66.77;101358.59;1461474;89;22095;-86
2021/12/14 09:43:56;;;;;;;114.30;55.00;;;;;;;2.61;66.49;101352.41;1431093;90;22108;-86
2021/12/14 09:46:24;;;;;;;108.17;51.50;;;;;;;2.95;66.89;101367.77;1451971;89;22094;-86
2021/12/14 09:48:56;;;;;;;78.10;41.23;;;;;;;3.29;65.89;101370.02;1451396;89;23096;-87
2021/12/14 09:51:38;;;;;;;64.17;31.97;;;;;;;3.29;65.89;101370.02;1464176;89;21366;-87
2021/12/14 09:54:09;;;;;;;139.50;67.47;;;;;;;3.41;64.68;101366.77;1452858;90;22294;-86
2021/12/14 09:56:41;;;;;;;44.85;23.00;;;;;;;3.50;63.41;101371.98;1452111;89;22306;-86
2021/12/14 09:59:11;;;;;;;57.93;29.97;;;;;;;3.56;63.94;101371.20;1451784;90;22359;-87
2021/12/14 10:01:44;;;;;;;63.67;33.80;;;;;;;3.49;62.66;101375.08;1458386;89;21521;-86
2021/12/14 10:04:16;;;;;;;104.47;52.87;;;;;;;3.57;63.88;101378.15;1449990;90;21382;-88
2021/12/14 10:06:46;;;;;;;70.73;37.70;;;;;;;3.55;61.77;101374.75;1456861;89;21433;-87
2021/12/14 10:09:19;;;;;;;26.37;14.90;;;;;;;3.64;63.08;101373.91;1450877;90;21582;-87
2021/12/14 10:14:29;;;;;;;25.40;13.17;;;;;;;3.11;60.84;101373.95;1451781;90;21463;-87
2021/12/14 10:16:57;;;;;;;28.10;15.53;;;;;;;2.79;61.08;101374.66;1458644;89;21455;-87
2021/12/14 10:19:29;;;;;;;30.23;15.83;;;;;;;2.83;61.96;101381.45;1443413;89;21426;-87
2021/12/14 10:22:08;;;;;;;27.80;14.73;;;;;;;2.75;62.49;101374.44;1456860;89;21522;-88
2021/12/14 10:24:36;;;;;;;29.30;15.20;;;;;;;2.94;62.94;101366.78;1446128;90;21507;-88
2021/12/14 10:27:13;;;;;;;38.47;19.97;;;;;;;3.06;63.09;101366.78;1452750;90;21366;-88
2021/12/14 10:29:42;;;;;;;27.00;14.63;;;;;;;3.20;63.39;101360.86;1452036;90;21448;-87
2021/12/14 10:32:14;;;;;;;25.70;14.70;;;;;;;3.28;61.29;101376.16;1451395;89;21404;-87
2021/12/14 10:34:47;;;;;;;30.17;15.30;;;;;;;3.23;62.42;101372.95;1448219;90;21456;-87
2021/12/14 10:37:24;;;;;;;29.77;14.97;;;;;;;3.23;61.95;101366.41;1454019;89;21426;-87
2021/12/14 10:45:07;;;;;;;33.13;17.53;;;;;;;3.53;62.91;101364.81;1441738;90;21441;-87
2021/12/14 10:47:35;;;;;;;26.80;15.37;;;;;;;3.60;62.55;101365.37;1449150;89;21456;-88
2021/12/14 10:50:08;;;;;;;27.77;14.57;;;;;;;3.59;61.19;101365.80;1451830;89;21352;-89
2021/12/14 10:52:40;;;;;;;32.17;16.37;;;;;;;3.60;62.19;101363.59;1450793;89;21434;-88
2021/12/14 10:55:13;;;;;;;27.27;15.40;;;;;;;3.61;62.13;101361.81;1446338;89;21432;-88
2021/12/14 10:57:41;;;;;;;25.57;15.27;;;;;;;3.64;61.38;101363.42;1453085;90;22394;-85
2021/12/14 11:00:16;;;;;;;32.00;16.13;;;;;;;3.58;60.77;101360.20;1455677;89;21475;-86
2021/12/14 11:02:44;;;;;;;28.53;15.47;;;;;;;3.60;62.42;101357.52;1449740;89;21654;-87
2021/12/14 11:05:18;;;;;;;28.00;14.37;;;;;;;3.64;62.67;101360.81;1454534;89;22373;-87
2021/12/14 11:07:48;;;;;;;30.50;17.20;;;;;;;3.75;63.16;101361.94;1450090;89;21551;-88
2021/12/14 11:10:27;;;;;;;31.30;16.32;;;;;;;3.80;61.97;101357.78;1444784;89;21391;-86
2021/12/14 11:13:06;;;;;;;30.77;17.37;;;;;;;3.79;61.46;101357.38;1441273;89;21532;-87
2021/12/14 11:15:38;;;;;;;27.77;13.70;;;;;;;3.87;62.76;101351.27;1422809;90;21598;-84
2021/12/14 11:18:20;;;;;;;27.57;14.57;;;;;;;3.71;60.92;101344.70;1426251;90;21535;-84
2021/12/14 11:21:02;;;;;;;26.07;13.83;;;;;;;3.50;60.59;101341.42;1423302;89;21570;-86
2021/12/14 11:23:45;;;;;;;29.37;14.33;;;;;;;3.46;61.84;101337.28;1428548;90;21586;-85
2021/12/14 11:26:29;;;;;;;28.63;14.90;;;;;;;3.24;60.83;101341.92;1423030;90;21504;-85
2021/12/14 11:29:11;;;;;;;28.93;15.20;;;;;;;3.23;61.78;101341.09;1427770;90;22497;-85
2021/12/14 11:31:49;;;;;;;31.50;14.73;;;;;;;3.43;62.46;101349.22;1498516;90;21220;-85
2021/12/14 11:34:31;;;;;;;31.07;15.30;;;;;;;3.42;61.22;101346.20;1359113;90;21396;-85
2021/12/14 11:37:03;;;;;;;23.47;12.73;;;;;;;3.56;60.25;101339.79;1441151;90;22613;-86
2021/12/14 11:39:41;;;;;;;25.73;13.70;;;;;;;3.99;58.76;101337.51;1507335;90;22278;-85
2021/12/14 11:42:14;;;;;;;30.80;15.80;;;;;;;4.28;59.83;101327.20;1507396;91;21424;-86
2021/12/14 11:44:47;;;;;;;25.93;15.40;;;;;;;4.77;60.66;101324.91;1464486;90;21379;-86
2021/12/14 11:50:24;;;;;;;26.97;14.87;;;;;;;5.10;57.78;101320.80;1421945;91;22625;-86
2021/12/14 11:53:13;;;;;;;28.87;15.40;;;;;;;5.43;57.78;101321.86;1493161;91;22409;-86
2021/12/14 11:55:54;;;;;;;30.63;17.00;;;;;;;5.37;55.85;101317.82;1486428;91;21409;-86
2021/12/14 11:58:43;;;;;;;31.42;17.40;;;;;;;5.29;56.13;101316.13;1404542;91;21498;-85
2021/12/14 12:01:46;;;;;;;27.77;15.87;;;;;;;5.36;58.00;101316.62;1508378;91;21204;-86
2021/12/14 12:04:18;;;;;;;30.53;15.77;;;;;;;5.48;58.14;101318.97;1368559;91;21528;-85
2021/12/14 12:09:36;;;;;;;30.47;17.90;;;;;;;5.97;57.54;101315.98;1428163;91;21507;-85
2021/12/14 12:12:12;;;;;;;34.47;19.27;;;;;;;6.15;57.06;101313.48;1427343;91;21594;-85
2021/12/14 12:15:20;;;;;;;31.27;19.53;;;;;;;6.53;56.59;101312.36;1426626;89;21445;-85
2021/12/14 12:18:00;;;;;;;27.80;17.20;;;;;;;6.78;56.37;101314.20;1428511;91;21520;-84
2021/12/14 12:20:42;;;;;;;28.73;17.20;;;;;;;7.11;56.71;101316.86;1427269;91;21416;-85
2021/12/14 12:23:14;;;;;;;42.13;24.87;;;;;;;7.57;54.52;101311.08;1430161;90;22603;-84
2021/12/14 12:26:00;;;;;;;41.27;24.60;;;;;;;7.93;54.41;101315.19;1443107;90;21478;-85